createdAt,value
2018-05-21T00:02:35.088Z,8.13
2018-05-21T00:17:34.760Z,7.77
2018-05-21T00:32:35.740Z,8.27
2018-05-21T00:47:36.924Z,9.60
2018-05-21T01:02:37.369Z,7.63
2018-05-21T01:17:35.043Z,10.93
2018-05-21T01:32:37.290Z,11.33
2018-05-21T01:47:35.786Z,10.40
2018-05-21T02:02:34.624Z,11.03
2018-05-21T02:17:35.307Z,11.47
2018-05-21T02:32:34.570Z,10.70
2018-05-21T02:47:34.345Z,10.83
2018-05-21T03:02:36.930Z,11.23
2018-05-21T03:17:34.642Z,11.63
2018-05-21T03:32:35.213Z,12.47
2018-05-21T03:47:35.691Z,10.00
2018-05-21T04:02:49.019Z,9.93
2018-05-21T04:17:36.232Z,8.93
2018-05-21T04:32:35.885Z,12.00
2018-05-21T04:47:34.887Z,11.70
2018-05-21T05:02:34.806Z,12.83
2018-05-21T05:17:34.238Z,12.83
2018-05-21T05:32:34.305Z,14.30
2018-05-21T05:47:34.154Z,13.77
2018-05-21T06:02:35.155Z,15.83
2018-05-21T06:17:34.530Z,16.10
2018-05-21T06:32:34.554Z,16.10
2018-05-21T06:47:35.788Z,15.90
2018-05-21T07:02:34.801Z,15.93
2018-05-21T07:17:34.860Z,16.63
2018-05-21T07:32:34.872Z,15.93
2018-05-21T07:47:34.838Z,17.23
2018-05-21T08:02:35.228Z,17.30
2018-05-21T08:17:37.164Z,17.67
2018-05-21T08:32:40.225Z,15.63
2018-05-21T08:47:35.541Z,15.17
2018-05-21T09:02:36.938Z,15.43
2018-05-21T09:17:36.447Z,14.30
2018-05-21T09:32:37.354Z,13.00
2018-05-21T09:47:34.334Z,12.37
2018-05-21T10:02:35.286Z,12.90
2018-05-21T10:17:34.687Z,12.57
2018-05-21T10:32:34.701Z,10.97
2018-05-21T10:47:34.605Z,8.30
2018-05-21T11:02:37.324Z,7.30
2018-05-21T11:17:35.533Z,6.50
2018-05-21T11:32:36.045Z,8.50
2018-05-21T11:47:35.322Z,8.30
2018-05-21T12:02:36.601Z,8.23
2018-05-21T12:17:36.405Z,7.70
2018-05-21T12:32:34.302Z,8.90
2018-05-21T12:47:34.349Z,9.10
2018-05-21T13:02:34.940Z,8.33
2018-05-21T13:17:34.779Z,8.57
2018-05-21T13:32:34.919Z,8.00
2018-05-21T13:47:34.752Z,8.40
2018-05-21T14:02:34.119Z,10.30
2018-05-21T14:17:34.509Z,8.80
2018-05-21T14:32:36.947Z,8.90
2018-05-21T14:47:34.832Z,12.50
2018-05-21T15:02:36.556Z,10.13
2018-05-21T15:17:34.185Z,10.97
2018-05-21T15:32:34.159Z,11.60
2018-05-21T15:47:34.224Z,12.30
2018-05-21T16:02:41.615Z,13.90
2018-05-21T16:17:35.103Z,13.50
2018-05-21T16:32:34.571Z,13.97
2018-05-21T16:47:35.277Z,14.97
2018-05-21T17:02:34.806Z,13.30
2018-05-21T17:17:36.451Z,13.80
2018-05-21T17:47:36.965Z,14.97
2018-05-21T18:02:35.193Z,15.00
2018-05-21T18:17:35.795Z,14.60
2018-05-21T18:47:37.380Z,16.63
2018-05-21T19:02:34.838Z,16.70
2018-05-21T19:17:36.727Z,15.90
2018-05-21T19:32:36.169Z,15.90
2018-05-21T19:47:35.544Z,14.90
2018-05-21T20:02:35.001Z,16.50
2018-05-21T20:17:35.946Z,15.13
2018-05-21T20:32:34.897Z,16.13
2018-05-21T20:47:34.878Z,15.13
2018-05-21T21:02:35.373Z,14.10
2018-05-21T21:17:36.055Z,13.67
2018-05-21T21:32:36.482Z,12.87
2018-05-21T21:47:36.404Z,12.70
2018-05-21T22:02:34.584Z,11.90
2018-05-21T22:17:34.340Z,11.57
2018-05-21T22:32:35.143Z,11.90
2018-05-21T22:47:33.723Z,10.20
2018-05-21T23:02:34.716Z,10.70
2018-05-21T23:17:34.717Z,10.17
2018-05-21T23:32:34.629Z,13.80
2018-05-21T23:47:35.439Z,13.77
